KCCB/CCB METAR and TAF weather

Enter ICAO airport designator
Station Type Date Time Source
KCCB METAR 2019/08/22 02:55 UTC NOAA

KCCB 220255Z AUTO 27008KT 10SM CLR 28/08 A2980 RMK AO2


Station Type Date Time Source
KCCB Decoded METAR 2019/08/22 02:55 UTC NOAA

Station name not available
Aug 21, 2019 - 10:55 PM EDT / 2019.08.22 0255 UTC
Wind: from the W (270 degrees) at 9 MPH (8 KT):0
Visibility: 10 mile(s):0
Sky conditions: clear
Temperature: 82 F (28 C)
Dew Point: 46 F (8 C)
Relative Humidity: 28%
Pressure (altimeter): 29.8 in. Hg (1009 hPa)
ob: KCCB 220255Z AUTO 27008KT 10SM CLR 28/08 A2980 RMK AO2
cycle: 3

Station Type Date Time Source
KCCB TAF UTC NOAA

Error!

Example: see airport list